Terminal Aerodrome Forecast
Issued by NWS

Home | Current Version | Previous Version | Text Only | Print | Product List | Glossary On
Versions: 1 2 3 4 5 6 7 8 9 10 11 12 13 14 15 16 17 18 19 20 21
000
FTUS43 KAPX 301100
TAFMBL
TAF
KMBL 301122Z 3012/3112 00000KT 1SM BR BKN001
      TEMPO 3012/3013 1/2SM FG VV001
     FM301300 31007KT P6SM SCT250
     FM310200 00000KT P6SM BKN070
      AMD LTD TO CLD VIS AND WIND=

USA.gov is the U.S. government's official web portal to all federal, state and local government web resources and services.